Time;durP1;ratioP1;P1;durP2;ratioP2;P2;SDS_P1;SDS_P2;PMS_P1;PMS_P2;Temp;Humidity;BMP_temperature;BMP_pressure;BME280_temperature;BME280_humidity;BME280_pressure;Samples;Min_cycle;Max_cycle;Signal;HPM_P1;HPM_P2
2021/05/24 00:02:15;;;;;;;12.37;7.50;;;;;;;6.83;75.64;97659.80;1795548;78;25866;-83
2021/05/24 00:04:42;;;;;;;12.88;7.03;;;;;;;6.87;75.73;97665.14;1808026;77;25825;-83
2021/05/24 00:07:09;;;;;;;12.33;6.85;;;;;;;6.90;75.64;97667.44;1777638;77;25749;-80
2021/05/24 00:09:37;;;;;;;12.40;6.87;;;;;;;6.92;75.51;97667.27;1792016;78;26220;-81
2021/05/24 00:12:05;;;;;;;11.18;6.55;;;;;;;6.92;75.39;97668.60;1802459;78;28192;-80
2021/05/24 00:14:34;;;;;;;9.55;6.60;;;;;;;6.90;75.24;97674.66;1814705;78;25697;-81
2021/05/24 00:17:00;;;;;;;11.22;6.12;;;;;;;6.86;75.21;97682.25;1800339;78;25548;-81
2021/05/24 00:19:27;;;;;;;13.48;6.60;;;;;;;6.83;75.21;97682.10;1792721;78;25681;-82
2021/05/24 00:21:54;;;;;;;10.93;6.62;;;;;;;6.82;75.16;97680.94;1819590;77;25694;-81
2021/05/24 00:24:20;;;;;;;17.77;8.18;;;;;;;6.78;75.02;97684.48;1805602;77;27466;-81
2021/05/24 00:26:47;;;;;;;14.25;6.97;;;;;;;6.76;74.91;97685.16;1799424;78;25570;-82
2021/05/24 00:29:19;;;;;;;9.83;6.12;;;;;;;6.62;74.73;97685.98;1816250;78;25663;-81
2021/05/24 00:31:45;;;;;;;9.18;5.33;;;;;;;6.56;74.96;97695.23;1816872;78;26251;-80
2021/05/24 00:34:12;;;;;;;7.87;5.20;;;;;;;6.55;75.11;97691.71;1795991;78;25665;-81
2021/05/24 00:36:38;;;;;;;9.40;5.35;;;;;;;6.50;75.11;97690.92;1805353;78;27514;-80
2021/05/24 00:39:09;;;;;;;8.95;5.37;;;;;;;6.49;75.12;97690.59;1805281;78;25538;-80
2021/05/24 00:41:40;;;;;;;8.73;4.87;;;;;;;6.41;74.98;97701.86;1792546;78;25561;-82
2021/05/24 00:44:09;;;;;;;11.88;5.55;;;;;;;6.33;75.00;97697.91;1791691;78;25683;-80
2021/05/24 00:46:37;;;;;;;10.25;5.47;;;;;;;6.25;75.04;97700.64;1798335;78;25484;-82
2021/05/24 00:49:05;;;;;;;8.63;5.15;;;;;;;6.23;75.19;97701.33;1807782;78;27477;-81
2021/05/24 00:51:33;;;;;;;10.70;5.37;;;;;;;6.19;75.21;97704.86;1793566;78;25743;-81
2021/05/24 00:54:00;;;;;;;7.70;4.55;;;;;;;6.10;75.27;97709.94;1795895;78;25673;-81
2021/05/24 00:56:28;;;;;;;7.35;4.92;;;;;;;6.12;75.41;97711.44;1804781;78;25615;-81
2021/05/24 00:58:57;;;;;;;7.70;5.00;;;;;;;6.13;75.36;97705.07;1794856;78;25671;-80
2021/05/24 01:01:27;;;;;;;11.30;4.65;;;;;;;6.14;75.29;97708.59;1791781;78;28196;-81
2021/05/24 01:03:52;;;;;;;7.28;5.40;;;;;;;6.14;75.12;97717.47;1791205;78;25606;-81
2021/05/24 01:06:22;;;;;;;7.83;5.05;;;;;;;6.07;74.97;97716.48;1791494;78;25664;-81
2021/05/24 01:08:48;;;;;;;13.53;4.80;;;;;;;6.02;74.83;97712.67;1821032;77;25640;-81
2021/05/24 01:11:15;;;;;;;9.15;4.03;;;;;;;5.99;74.93;97706.31;1824222;78;25604;-82
2021/05/24 01:13:43;;;;;;;10.60;5.03;;;;;;;5.96;74.90;97714.19;1798502;77;27475;-82
2021/05/24 01:16:09;;;;;;;11.68;4.87;;;;;;;5.86;74.72;97709.52;1791513;78;25739;-79
2021/05/24 01:18:36;;;;;;;9.08;5.67;;;;;;;5.71;74.83;97704.05;1796300;78;25668;-79
2021/05/24 01:21:08;;;;;;;7.53;4.95;;;;;;;5.71;75.07;97709.91;1805187;78;25616;-79
2021/05/24 01:23:43;;;;;;;;;;;;;;;5.71;75.21;97715.27;1795560;78;25239;-80
2021/05/24 01:26:10;;;;;;;9.98;5.42;;;;;;;5.59;75.08;97720.17;1794141;78;27424;-80
2021/05/24 01:28:37;;;;;;;11.33;5.50;;;;;;;5.48;75.22;97725.05;1796631;78;25687;-82
2021/05/24 01:31:05;;;;;;;8.93;4.45;;;;;;;5.41;75.48;97729.77;1803105;78;25616;-81
2021/05/24 01:33:35;;;;;;;7.60;4.50;;;;;;;5.44;75.57;97720.03;1792213;78;25657;-81
2021/05/24 01:36:04;;;;;;;6.85;4.37;;;;;;;5.45;75.47;97728.91;1818175;78;25663;-80
2021/05/24 01:38:32;;;;;;;9.75;4.65;;;;;;;5.44;75.32;97724.05;1791691;78;27389;-80
2021/05/24 01:40:59;;;;;;;8.78;4.67;;;;;;;5.41;75.23;97726.26;1801240;78;25545;-81
2021/05/24 01:43:29;;;;;;;7.92;4.33;;;;;;;5.34;75.21;97722.58;1791848;78;25649;-81
2021/05/24 01:45:56;;;;;;;7.70;4.50;;;;;;;5.33;75.32;97731.11;1791710;78;25806;-81
2021/05/24 01:48:24;;;;;;;9.58;5.15;;;;;;;5.34;75.34;97735.46;1794679;78;25658;-80
2021/05/24 01:50:51;;;;;;;8.38;5.20;;;;;;;5.33;75.29;97732.95;1791684;78;27553;-80
2021/05/24 01:53:19;;;;;;;7.45;4.45;;;;;;;5.28;75.15;97735.32;1803396;78;25202;-80
2021/05/24 01:55:48;;;;;;;9.25;5.08;;;;;;;5.20;75.26;97734.81;1802496;78;25324;-80
2021/05/24 01:58:16;;;;;;;6.95;4.03;;;;;;;5.20;75.31;97733.47;1792067;78;25641;-81
2021/05/24 02:00:44;;;;;;;8.15;4.72;;;;;;;5.21;75.34;97733.80;1806020;78;25702;-80
2021/05/24 02:03:11;;;;;;;8.38;4.42;;;;;;;5.20;75.27;97736.15;1820632;78;28266;-80
2021/05/24 02:05:38;;;;;;;7.85;4.42;;;;;;;5.19;75.24;97734.50;1789234;78;25613;-80
2021/05/24 02:08:05;;;;;;;5.85;4.12;;;;;;;5.15;75.28;97738.52;1791809;78;25637;-80
2021/05/24 02:10:37;;;;;;;5.65;4.00;;;;;;;5.06;75.18;97747.56;1785765;78;26530;-81
2021/05/24 02:13:06;;;;;;;5.83;3.70;;;;;;;5.02;75.32;97741.70;1798128;78;26814;-81
2021/05/24 02:15:39;;;;;;;6.00;3.90;;;;;;;5.03;75.43;97734.52;1815758;78;27424;-80
2021/05/24 02:18:06;;;;;;;;;;;;;;;5.03;75.36;97746.55;1798819;78;25871;-80
2021/05/24 02:20:34;;;;;;;5.75;3.67;;;;;;;5.02;75.41;97743.54;1799567;78;25469;-80
2021/05/24 02:23:07;;;;;;;5.62;3.87;;;;;;;5.00;75.37;97749.55;1786635;78;25685;-81
2021/05/24 02:25:33;;;;;;;10.28;3.33;;;;;;;5.00;75.26;97750.89;1802166;78;25716;-79
2021/05/24 02:28:00;;;;;;;4.92;3.50;;;;;;;4.95;75.16;97742.55;1786694;78;28239;-80
2021/05/24 02:30:28;;;;;;;5.12;3.52;;;;;;;4.90;75.24;97742.20;1803449;78;25683;-80
2021/05/24 02:32:55;;;;;;;5.72;4.17;;;;;;;4.89;75.24;97745.38;1786954;78;25694;-80
2021/05/24 02:35:25;;;;;;;5.90;3.77;;;;;;;4.87;75.27;97745.20;1786828;78;25566;-81
2021/05/24 02:37:53;;;;;;;11.57;4.50;;;;;;;4.79;75.25;97746.55;1787050;78;25250;-80
2021/05/24 02:40:21;;;;;;;5.65;3.90;;;;;;;4.70;75.36;97745.72;1786882;78;27537;-81
2021/05/24 02:42:48;;;;;;;7.00;3.70;;;;;;;4.71;75.45;97740.19;1786919;78;25823;-81
2021/05/24 02:45:17;;;;;;;7.33;4.28;;;;;;;4.70;75.40;97734.53;1787038;78;25594;-81
2021/05/24 02:47:44;;;;;;;10.10;4.65;;;;;;;4.62;75.42;97738.52;1786941;78;26433;-80
2021/05/24 02:50:15;;;;;;;8.75;4.50;;;;;;;4.63;75.55;97750.05;1787141;78;25760;-81
2021/05/24 02:52:42;;;;;;;7.22;4.55;;;;;;;4.61;75.67;97749.37;1817302;78;27399;-81
2021/05/24 02:55:09;;;;;;;10.65;5.05;;;;;;;4.65;75.67;97759.58;1801569;78;25592;-81
2021/05/24 02:57:36;;;;;;;6.95;4.00;;;;;;;4.68;75.62;97765.11;1786882;78;25252;-82
2021/05/24 03:00:06;;;;;;;7.12;4.08;;;;;;;4.67;75.53;97769.62;1786901;78;25662;-80
2021/05/24 03:02:32;;;;;;;9.65;4.28;;;;;;;4.65;75.44;97771.61;1788117;78;25690;-81
2021/05/24 03:04:59;;;;;;;8.18;4.55;;;;;;;4.64;75.41;97768.60;1794112;78;27348;-81
2021/05/24 03:07:26;;;;;;;7.85;5.08;;;;;;;4.60;75.37;97773.94;1796633;77;25656;-81
2021/05/24 03:09:53;;;;;;;7.45;3.95;;;;;;;4.57;75.42;97770.78;1804539;78;25785;-81
2021/05/24 03:12:20;;;;;;;7.53;4.60;;;;;;;4.55;75.46;97775.45;1772051;80;25646;-81
2021/05/24 03:14:46;;;;;;;9.25;4.37;;;;;;;4.50;75.50;97777.27;1801502;77;25638;-81
2021/05/24 03:17:13;;;;;;;5.80;4.08;;;;;;;4.49;75.61;97782.27;1775068;78;28053;-80
2021/05/24 03:19:40;;;;;;;7.15;4.42;;;;;;;4.50;75.64;97783.95;1797755;78;25692;-82
2021/05/24 03:22:06;;;;;;;9.48;4.28;;;;;;;4.49;75.52;97782.27;1790361;78;25621;-82
2021/05/24 03:24:33;;;;;;;6.30;4.22;;;;;;;4.49;75.58;97787.62;1806647;78;25557;-80
2021/05/24 03:26:59;;;;;;;8.43;4.33;;;;;;;4.48;75.64;97794.45;1808158;78;25602;-81
2021/05/24 03:29:26;;;;;;;8.40;4.40;;;;;;;4.48;75.68;97790.45;1797246;78;27417;-81
2021/05/24 03:31:53;;;;;;;13.70;3.98;;;;;;;4.49;75.70;97791.63;1780670;78;25588;-82
2021/05/24 03:34:19;;;;;;;6.90;4.25;;;;;;;4.51;75.79;97793.64;1776377;78;25719;-81
2021/05/24 03:36:46;;;;;;;8.48;4.30;;;;;;;4.49;75.80;97794.80;1794479;78;25668;-81
2021/05/24 03:39:12;;;;;;;7.22;4.10;;;;;;;4.45;75.94;97793.47;1776345;78;25614;-81
2021/05/24 03:41:39;;;;;;;6.22;4.40;;;;;;;4.46;76.07;97795.98;1777006;78;27998;-81
2021/05/24 03:44:06;;;;;;;10.75;4.78;;;;;;;4.49;76.11;97796.97;1805261;78;25618;-81
2021/05/24 03:46:33;;;;;;;7.78;4.72;;;;;;;4.52;76.17;97796.66;1774993;78;25625;-80
2021/05/24 03:49:01;;;;;;;5.35;4.25;;;;;;;4.58;76.20;97800.52;1794136;78;26220;-81
2021/05/24 03:51:28;;;;;;;6.45;4.47;;;;;;;4.60;76.19;97791.31;1789191;78;26317;-79
2021/05/24 03:53:55;;;;;;;7.30;4.50;;;;;;;4.61;76.17;97788.98;1784547;78;27531;-80
2021/05/24 03:56:22;;;;;;;12.07;4.60;;;;;;;4.64;76.16;97788.66;1812133;78;25457;-80
2021/05/24 03:58:48;;;;;;;7.10;4.65;;;;;;;4.65;76.18;97798.35;1802094;78;25597;-80
2021/05/24 04:01:15;;;;;;;10.08;4.85;;;;;;;4.68;76.26;97804.72;1805409;78;25536;-80
2021/05/24 04:03:42;;;;;;;6.65;4.60;;;;;;;4.71;76.27;97802.19;1774860;78;25644;-81
2021/05/24 04:06:11;;;;;;;7.15;4.85;;;;;;;4.73;76.30;97801.53;1803214;78;27397;-81
2021/05/24 04:08:41;;;;;;;7.33;4.67;;;;;;;4.76;76.38;97798.53;1818084;78;25559;-80
2021/05/24 04:11:06;;;;;;;8.48;4.70;;;;;;;4.81;76.42;97798.05;1804214;78;25607;-81
2021/05/24 04:13:32;;;;;;;6.62;4.30;;;;;;;4.87;76.48;97793.36;1799980;78;25577;-80
2021/05/24 04:15:59;;;;;;;9.45;5.25;;;;;;;4.91;76.52;97793.38;1796911;78;25564;-81
2021/05/24 04:18:29;;;;;;;10.00;4.53;;;;;;;4.98;76.63;97790.35;1776860;78;27543;-81
2021/05/24 04:20:55;;;;;;;6.00;4.25;;;;;;;5.04;76.67;97795.05;1776730;78;25787;-81
2021/05/24 04:23:21;;;;;;;10.38;4.55;;;;;;;5.08;76.70;97801.72;1794113;78;25182;-81
2021/05/24 04:25:48;;;;;;;6.62;4.67;;;;;;;5.13;76.78;97799.39;1791233;78;26467;-81
2021/05/24 04:28:15;;;;;;;7.87;4.50;;;;;;;5.21;76.86;97806.07;1786258;78;26181;-82
2021/05/24 04:30:42;;;;;;;5.20;4.12;;;;;;;5.26;76.93;97805.08;1795858;77;27413;-81
2021/05/24 04:33:09;;;;;;;7.55;4.50;;;;;;;5.32;76.89;97808.91;1791013;78;26051;-82
2021/05/24 04:35:36;;;;;;;7.22;4.05;;;;;;;5.38;76.93;97805.56;1802412;78;25685;-80
2021/05/24 04:38:04;;;;;;;7.17;4.40;;;;;;;5.42;76.96;97802.39;1802254;78;25600;-82
2021/05/24 04:40:31;;;;;;;7.03;4.47;;;;;;;5.49;77.07;97804.38;1808010;78;25650;-82
2021/05/24 04:42:58;;;;;;;5.97;4.30;;;;;;;5.55;77.13;97807.23;1776262;78;27504;-80
2021/05/24 04:45:25;;;;;;;6.42;4.45;;;;;;;5.63;77.25;97810.38;1774728;78;25676;-81
2021/05/24 04:47:52;;;;;;;6.28;4.62;;;;;;;5.70;77.34;97811.36;1774924;78;26327;-81
2021/05/24 04:50:19;;;;;;;7.30;5.00;;;;;;;5.77;77.31;97809.19;1794026;78;26244;-81
2021/05/24 04:52:46;;;;;;;5.72;4.58;;;;;;;5.87;77.44;97806.31;1774947;78;25627;-82
2021/05/24 04:55:13;;;;;;;11.68;5.20;;;;;;;5.96;77.62;97805.30;1802269;78;27530;-81
2021/05/24 04:57:40;;;;;;;7.80;5.35;;;;;;;6.04;77.77;97799.90;1783842;78;25727;-82
2021/05/24 05:00:10;;;;;;;9.13;5.60;;;;;;;6.16;78.03;97807.59;1811113;78;25707;-81
2021/05/24 05:02:38;;;;;;;8.63;6.15;;;;;;;6.24;78.25;97807.55;1804038;78;25583;-80
2021/05/24 05:05:07;;;;;;;9.20;6.25;;;;;;;6.34;78.49;97820.23;1788906;78;25614;-81
2021/05/24 05:07:34;;;;;;;7.78;5.55;;;;;;;6.44;78.61;97812.80;1774591;78;28058;-81
2021/05/24 05:10:03;;;;;;;7.12;4.95;;;;;;;6.56;78.79;97808.72;1786288;78;25814;-81
2021/05/24 05:12:31;;;;;;;7.37;4.75;;;;;;;6.66;78.80;97805.30;1782786;78;25644;-82
2021/05/24 05:14:58;;;;;;;5.67;3.30;;;;;;;6.77;78.76;97810.25;1802120;78;25636;-83
2021/05/24 05:17:26;;;;;;;5.20;3.15;;;;;;;6.90;78.89;97811.52;1783867;78;25604;-82
2021/05/24 05:19:54;;;;;;;4.70;3.12;;;;;;;7.01;78.87;97809.25;1794266;78;27368;-81
2021/05/24 05:22:20;;;;;;;6.70;3.17;;;;;;;7.12;78.80;97802.15;1791069;78;25621;-81
2021/05/24 05:24:47;;;;;;;6.10;3.35;;;;;;;7.25;78.79;97809.56;1796667;78;25217;-82
2021/05/24 05:27:14;;;;;;;8.10;3.33;;;;;;;7.35;78.81;97807.49;1796962;78;25597;-81
2021/05/24 05:29:40;;;;;;;5.78;3.50;;;;;;;7.47;78.78;97805.20;1805208;78;25594;-81
2021/05/24 05:32:07;;;;;;;7.90;3.58;;;;;;;7.58;78.72;97806.94;1800184;78;28102;-82
2021/05/24 05:34:34;;;;;;;8.00;3.87;;;;;;;7.72;78.73;97814.70;1794208;78;25604;-81
2021/05/24 05:37:01;;;;;;;10.20;3.98;;;;;;;7.87;78.71;97812.00;1790620;78;25739;-80
2021/05/24 05:39:27;;;;;;;6.25;3.80;;;;;;;8.00;78.92;97819.42;1801687;78;25923;-81
2021/05/24 05:41:54;;;;;;;7.28;4.03;;;;;;;8.12;79.11;97823.32;1777296;78;25521;-80
2021/05/24 05:44:20;;;;;;;5.78;3.58;;;;;;;8.25;79.13;97829.72;1774902;78;27494;-82
2021/05/24 05:46:47;;;;;;;5.58;3.27;;;;;;;8.42;79.04;97825.53;1774732;78;25285;-82
2021/05/24 05:49:14;;;;;;;5.15;3.60;;;;;;;8.54;78.76;97813.27;1781747;78;26312;-82
2021/05/24 05:51:40;;;;;;;8.50;3.85;;;;;;;8.67;78.64;97808.04;1786241;78;26210;-79
2021/05/24 05:54:07;;;;;;;4.58;3.80;;;;;;;8.82;78.62;97790.48;1781369;78;26018;-80
2021/05/24 05:56:33;;;;;;;7.17;3.85;;;;;;;8.97;78.67;97794.80;1782717;78;27526;-82
2021/05/24 05:59:00;;;;;;;4.80;3.20;;;;;;;9.12;78.78;97795.25;1805254;77;25651;-79
2021/05/24 06:01:27;;;;;;;3.33;2.50;;;;;;;9.26;78.66;97798.39;1779668;78;25601;-82
2021/05/24 06:03:53;;;;;;;4.10;2.40;;;;;;;9.39;78.46;97797.16;1775444;78;25688;-82
2021/05/24 06:06:20;;;;;;;3.17;2.20;;;;;;;9.52;78.17;97791.89;1792223;78;25581;-82
2021/05/24 06:08:47;;;;;;;3.25;1.67;;;;;;;9.64;77.98;97795.71;1804047;78;27302;-81
2021/05/24 06:11:13;;;;;;;3.12;1.70;;;;;;;9.79;77.74;97798.80;1806018;78;25751;-80
2021/05/24 06:13:40;;;;;;;2.98;2.33;;;;;;;9.91;77.33;97794.52;1805910;78;26489;-81
2021/05/24 06:16:07;;;;;;;2.75;1.60;;;;;;;10.03;77.10;97791.59;1791968;78;25608;-82
2021/05/24 06:18:34;;;;;;;3.00;1.80;;;;;;;10.16;76.97;97798.41;1791769;78;25549;-81
2021/05/24 06:21:00;;;;;;;3.30;1.85;;;;;;;10.29;76.87;97792.29;1791871;78;28431;-82
2021/05/24 06:23:27;;;;;;;3.33;1.70;;;;;;;10.42;76.40;97789.14;1791950;78;25572;-82
2021/05/24 06:25:53;;;;;;;5.28;1.80;;;;;;;10.56;76.05;97781.09;1792037;78;25572;-82
2021/05/24 06:28:20;;;;;;;3.22;1.40;;;;;;;10.69;75.70;97774.40;1792150;78;25663;-83
2021/05/24 06:30:46;;;;;;;2.65;1.50;;;;;;;10.83;75.50;97770.70;1791921;78;25727;-82
2021/05/24 06:33:14;;;;;;;2.10;1.67;;;;;;;10.96;75.18;97774.79;1800852;78;28036;-83
2021/05/24 06:35:40;;;;;;;2.17;1.60;;;;;;;11.08;74.63;97779.06;1793623;78;25658;-81
2021/05/24 06:38:07;;;;;;;3.02;1.55;;;;;;;11.21;74.39;97772.85;1798647;78;26333;-82
2021/05/24 06:40:34;;;;;;;3.02;1.42;;;;;;;11.36;74.42;97785.63;1796353;78;25585;-83
2021/05/24 06:43:00;;;;;;;2.65;1.30;;;;;;;11.48;74.11;97786.67;1810182;78;25599;-83
2021/05/24 06:45:27;;;;;;;4.55;2.00;;;;;;;11.60;73.84;97789.06;1792115;78;27235;-83
2021/05/24 06:47:54;;;;;;;3.67;1.70;;;;;;;11.73;73.71;97785.52;1791982;78;25580;-83
2021/05/24 06:50:20;;;;;;;3.75;1.70;;;;;;;11.83;73.39;97789.49;1791991;78;25537;-83
2021/05/24 06:52:47;;;;;;;3.42;1.72;;;;;;;11.93;74.29;97778.78;1800476;78;25625;-84
2021/05/24 06:55:15;;;;;;;2.60;1.57;;;;;;;12.03;74.36;97774.59;1824415;78;25679;-84
2021/05/24 06:57:42;;;;;;;4.28;1.37;;;;;;;12.16;74.42;97777.80;1807923;78;28259;-82
2021/05/24 07:00:11;;;;;;;3.27;1.62;;;;;;;12.26;73.56;97774.12;1792099;78;25642;-83
2021/05/24 07:02:42;;;;;;;3.02;1.60;;;;;;;12.36;72.95;97772.31;1788319;78;26306;-84
2021/05/24 07:05:10;;;;;;;4.08;1.50;;;;;;;12.47;72.59;97764.35;1804450;78;26194;-84
2021/05/24 07:07:37;;;;;;;1.67;1.27;;;;;;;12.60;72.00;97761.59;1824489;78;25521;-84
2021/05/24 07:10:05;;;;;;;3.08;1.57;;;;;;;12.71;71.77;97751.95;1801196;78;27506;-80
2021/05/24 07:12:32;;;;;;;1.60;1.47;;;;;;;12.83;71.45;97745.31;1802988;78;26344;-81
2021/05/24 07:14:59;;;;;;;1.62;1.15;;;;;;;12.89;70.93;97749.88;1798807;78;25402;-83
2021/05/24 07:17:26;;;;;;;3.87;1.40;;;;;;;13.00;70.61;97762.73;1785524;78;25704;-80
2021/05/24 07:19:53;;;;;;;7.30;1.90;;;;;;;13.13;69.95;97757.75;1805298;78;25628;-83
2021/05/24 07:22:19;;;;;;;3.02;1.30;;;;;;;13.17;69.51;97768.48;1800927;78;27219;-86
2021/05/24 07:24:46;;;;;;;3.45;1.30;;;;;;;13.24;70.19;97767.41;1795363;78;25661;-85
2021/05/24 07:27:12;;;;;;;2.37;1.10;;;;;;;13.37;69.96;97764.28;1805679;78;25750;-85
2021/05/24 07:29:39;;;;;;;3.42;1.70;;;;;;;13.47;69.46;97757.31;1787595;78;26365;-85
2021/05/24 07:32:10;;;;;;;4.40;1.40;;;;;;;13.61;69.52;97761.59;1776403;78;25622;-83
2021/05/24 07:34:35;;;;;;;1.47;1.20;;;;;;;13.73;69.27;97755.43;1741377;79;27361;-85
2021/05/24 07:37:01;;;;;;;1.67;1.20;;;;;;;13.81;69.06;97750.54;1757374;80;26354;-81
2021/05/24 07:39:28;;;;;;;1.30;1.20;;;;;;;13.93;68.97;97746.03;1757361;80;26276;-84
2021/05/24 07:41:59;;;;;;;2.20;1.20;;;;;;;14.12;68.60;97746.06;1741641;81;25642;-84
2021/05/24 07:44:23;;;;;;;2.52;1.42;;;;;;;14.27;68.24;97736.47;1744381;80;25802;-85
2021/05/24 07:46:49;;;;;;;2.42;1.37;;;;;;;14.49;67.85;97733.34;1784888;79;28136;-82
2021/05/24 07:49:18;;;;;;;2.72;1.37;;;;;;;14.68;68.15;97731.72;1768303;80;25690;-85
2021/05/24 07:51:44;;;;;;;5.20;1.20;;;;;;;14.83;67.70;97728.59;1723002;81;25587;-85
2021/05/24 07:54:11;;;;;;;3.27;1.37;;;;;;;14.90;67.21;97731.20;1722975;81;25612;-84
2021/05/24 07:56:38;;;;;;;2.10;1.37;;;;;;;14.98;67.53;97741.74;1722927;81;25726;-85
2021/05/24 07:59:05;;;;;;;2.33;1.47;;;;;;;15.19;67.16;97739.88;1744060;81;27485;-86
2021/05/24 08:01:32;;;;;;;1.55;1.25;;;;;;;15.40;66.33;97737.97;1733787;81;25702;-85
2021/05/24 08:03:58;;;;;;;2.77;1.17;;;;;;;15.58;66.23;97737.63;1752920;80;25684;-85
2021/05/24 08:06:25;;;;;;;5.10;1.40;;;;;;;15.69;65.80;97725.92;1752831;81;26093;-86
2021/05/24 08:08:52;;;;;;;1.90;1.32;;;;;;;15.88;65.93;97719.81;1735283;81;25572;-86
2021/05/24 08:11:18;;;;;;;2.62;1.50;;;;;;;16.01;65.86;97721.76;1722911;81;26857;-86
2021/05/24 08:13:45;;;;;;;6.20;2.25;;;;;;;16.12;65.44;97714.11;1737868;81;25592;-85
2021/05/24 08:16:13;;;;;;;3.42;1.60;;;;;;;16.20;64.96;97705.56;1722442;81;25622;-86
2021/05/24 08:18:41;;;;;;;3.52;1.27;;;;;;;16.31;64.69;97709.85;1716524;82;25673;-86
2021/05/24 08:21:10;;;;;;;4.45;1.25;;;;;;;16.42;64.06;97707.66;1716448;82;25703;-84
2021/05/24 08:23:38;;;;;;;1.30;1.07;;;;;;;16.47;63.91;97715.92;1716478;82;28064;-87
2021/05/24 08:26:04;;;;;;;2.22;1.40;;;;;;;16.67;63.73;97724.53;1716445;82;25678;-85
2021/05/24 08:28:32;;;;;;;2.27;1.50;;;;;;;16.89;62.76;97719.25;1716503;82;25651;-81
2021/05/24 08:30:59;;;;;;;2.98;1.62;;;;;;;17.01;62.36;97714.57;1716503;82;25682;-82
2021/05/24 08:33:26;;;;;;;2.58;1.42;;;;;;;17.02;62.56;97724.95;1716613;82;25716;-82
2021/05/24 08:35:52;;;;;;;1.85;1.10;;;;;;;17.37;62.28;97726.11;1716630;82;27303;-87
2021/05/24 08:38:19;;;;;;;2.20;1.40;;;;;;;17.57;61.49;97723.71;1716475;82;25606;-87
2021/05/24 08:40:47;;;;;;;2.47;1.35;;;;;;;17.93;60.75;97719.66;1716533;82;25597;-81
2021/05/24 08:43:16;;;;;;;2.50;1.12;;;;;;;18.26;60.36;97714.13;1716272;82;26130;-88
2021/05/24 08:45:45;;;;;;;3.15;1.32;;;;;;;18.66;59.82;97711.66;1716438;82;25669;-85
2021/05/24 08:48:13;;;;;;;1.32;1.20;;;;;;;19.02;59.12;97701.39;1715605;82;27457;-88
2021/05/24 08:50:41;;;;;;;1.82;1.60;;;;;;;19.08;58.26;97698.72;1716400;82;25681;-81
2021/05/24 08:53:10;;;;;;;2.15;1.35;;;;;;;19.18;58.30;97692.80;1716474;82;26324;-83
2021/05/24 08:55:37;;;;;;;3.37;1.15;;;;;;;19.33;57.83;97683.87;1716407;82;26136;-82
2021/05/24 08:58:09;;;;;;;2.77;1.40;;;;;;;19.35;57.23;97680.34;1716568;82;25542;-83
2021/05/24 09:00:36;;;;;;;4.92;1.40;;;;;;;19.37;56.86;97682.28;1731041;81;27296;-88
2021/05/24 09:03:02;;;;;;;2.33;1.30;;;;;;;19.34;56.55;97681.42;1770451;80;25691;-84
2021/05/24 09:05:32;;;;;;;2.00;1.60;;;;;;;19.35;56.68;97680.34;1749953;80;25711;-82
2021/05/24 09:08:03;;;;;;;4.33;1.20;;;;;;;19.47;56.42;97674.14;1749946;80;25629;-82
2021/05/24 09:10:31;;;;;;;3.42;1.27;;;;;;;19.66;56.28;97682.28;1749966;80;25501;-83
2021/05/24 09:12:58;;;;;;;2.30;1.70;;;;;;;19.69;55.99;97678.99;1749525;80;28114;-82
2021/05/24 09:15:27;;;;;;;2.50;1.30;;;;;;;19.66;55.55;97669.95;1742349;80;25648;-82
2021/05/24 09:17:58;;;;;;;5.83;1.65;;;;;;;19.76;55.48;97657.70;1735657;81;25231;-87
2021/05/24 09:20:34;;;;;;;6.13;1.37;;;;;;;19.72;55.34;97659.30;1750224;81;26134;-85
2021/05/24 09:23:32;;;;;;;1.92;1.40;;;;;;;19.75;55.36;97661.52;1732169;81;25724;-82
2021/05/24 09:26:10;;;;;;;2.27;1.27;;;;;;;19.85;55.52;97653.91;1732473;81;27397;-83
2021/05/24 09:28:48;;;;;;;2.77;1.25;;;;;;;20.13;55.34;97634.89;1730136;81;25808;-87
2021/05/24 09:31:24;;;;;;;1.77;1.32;;;;;;;20.38;54.27;97636.95;1730084;81;26325;-92
2021/05/24 09:34:00;;;;;;;2.02;1.30;;;;;;;20.21;53.31;97637.11;1741181;81;25715;-92
2021/05/24 09:36:33;;;;;;;1.95;1.25;;;;;;;20.16;54.26;97637.11;1730101;81;26464;-86
2021/05/24 09:39:08;;;;;;;1.95;1.30;;;;;;;20.21;54.05;97623.41;1737179;81;27363;-83
2021/05/24 09:41:45;;;;;;;2.58;1.45;;;;;;;20.20;53.67;97629.16;1730001;81;25745;-82
2021/05/24 09:44:23;;;;;;;2.50;1.22;;;;;;;20.22;53.78;97622.32;1736290;81;25660;-83
2021/05/24 09:46:54;;;;;;;1.90;0.88;;;;;;;20.04;53.19;97609.10;1760584;79;26474;-82
2021/05/24 09:49:30;;;;;;;3.90;1.27;;;;;;;19.75;53.17;97612.23;1752731;81;25823;-82
2021/05/24 09:51:58;;;;;;;3.33;1.30;;;;;;;19.60;53.98;97609.92;1730078;81;27355;-83
2021/05/24 09:54:34;;;;;;;1.70;1.10;;;;;;;19.68;54.25;97612.98;1758423;81;25660;-81
2021/05/24 09:57:05;;;;;;;2.00;1.12;;;;;;;19.89;53.78;97604.91;1759456;79;25699;-82
2021/05/24 09:59:31;;;;;;;2.10;1.20;;;;;;;20.14;53.24;97599.00;1738670;81;25674;-84
2021/05/24 10:02:01;;;;;;;1.45;1.12;;;;;;;20.33;52.46;97602.08;1753005;80;25577;-82
2021/05/24 10:04:30;;;;;;;2.60;0.90;;;;;;;20.36;51.74;97601.58;1756302;81;27507;-83
2021/05/24 10:06:58;;;;;;;1.65;1.10;;;;;;;20.30;51.12;97587.53;1760310;81;25597;-89
2021/05/24 10:09:24;;;;;;;3.67;1.10;;;;;;;20.27;51.09;97589.45;1748168;81;25660;-85
2021/05/24 10:11:53;;;;;;;2.35;1.32;;;;;;;20.19;50.91;97593.24;1760375;81;25711;-82
2021/05/24 10:14:23;;;;;;;1.80;1.22;;;;;;;20.09;50.36;97595.41;1748125;79;25634;-87
2021/05/24 10:16:56;;;;;;;2.85;0.98;;;;;;;20.02;50.19;97590.73;1750448;81;27314;-84
2021/05/24 10:19:22;;;;;;;2.40;1.40;;;;;;;20.07;50.04;97590.73;1757342;79;25214;-89
2021/05/24 10:21:51;;;;;;;2.83;1.32;;;;;;;20.18;49.28;97584.74;1754121;81;25700;-82
2021/05/24 10:24:24;;;;;;;3.50;1.70;;;;;;;20.18;49.35;97582.83;1755127;81;25620;-85
2021/05/24 10:26:57;;;;;;;3.83;1.57;;;;;;;20.28;49.48;97584.80;1753696;81;25738;-84
2021/05/24 10:29:24;;;;;;;5.15;1.45;;;;;;;20.41;49.33;97585.67;1758086;81;27283;-81
2021/05/24 10:31:50;;;;;;;4.15;1.40;;;;;;;20.47;49.02;97582.69;1737914;81;25638;-83
2021/05/24 10:34:24;;;;;;;4.12;1.32;;;;;;;20.40;49.07;97579.94;1743987;81;25606;-83
2021/05/24 10:37:17;;;;;;;4.12;1.40;;;;;;;20.42;49.09;97579.92;1735681;81;26333;-82
2021/05/24 10:40:02;;;;;;;3.58;1.40;;;;;;;20.48;48.63;97577.48;1750965;81;25248;-85
2021/05/24 10:42:45;;;;;;;2.40;1.10;;;;;;;20.56;48.70;97580.78;1740892;81;27331;-82
2021/05/24 10:45:30;;;;;;;1.82;1.32;;;;;;;20.51;48.12;97580.78;1740285;81;25677;-90
2021/05/24 10:47:58;;;;;;;1.17;1.07;;;;;;;20.35;48.75;97573.02;1739501;81;25650;-84
2021/05/24 10:50:28;;;;;;;1.35;1.25;;;;;;;20.55;48.39;97558.56;1757335;79;25589;-92
2021/05/24 10:53:08;;;;;;;3.22;1.20;;;;;;;20.55;48.39;97558.56;1740215;81;25664;-83
2021/05/24 10:55:46;;;;;;;3.27;1.80;;;;;;;20.77;48.41;97579.74;1740502;79;28046;-85
2021/05/24 10:58:16;;;;;;;2.92;1.50;;;;;;;20.86;47.89;97572.61;1741130;81;25262;-85
2021/05/24 11:01:04;;;;;;;1.92;1.57;;;;;;;20.91;47.41;97575.89;1757738;79;25673;-88
2021/05/24 11:03:32;;;;;;;2.83;1.52;;;;;;;20.89;47.48;97572.05;1745426;79;26027;-84
2021/05/24 11:06:17;;;;;;;3.92;1.98;;;;;;;20.67;47.07;97571.47;1746148;81;25597;-88
2021/05/24 11:09:01;;;;;;;3.62;1.35;;;;;;;20.73;47.86;97573.97;1758470;81;28217;-91
2021/05/24 11:11:30;;;;;;;2.75;1.40;;;;;;;20.92;46.90;97566.02;1737784;81;25599;-86
2021/05/24 11:14:08;;;;;;;1.87;1.62;;;;;;;20.95;47.15;97562.73;1753783;81;25694;-81
2021/05/24 11:16:37;;;;;;;1.70;1.20;;;;;;;21.08;47.62;97557.25;1762215;81;25608;-85
2021/05/24 11:19:16;;;;;;;1.72;1.55;;;;;;;21.28;47.40;97553.69;1750726;81;25413;-84
2021/05/24 11:21:51;;;;;;;3.37;1.50;;;;;;;21.45;47.16;97543.23;1734818;81;27483;-86
2021/05/24 11:24:35;;;;;;;2.85;1.00;;;;;;;21.57;46.81;97545.13;1729532;82;25748;-82
2021/05/24 11:27:14;;;;;;;2.77;1.50;;;;;;;21.65;46.34;97535.48;1749621;81;25249;-95
2021/05/24 11:29:43;;;;;;;3.05;1.57;;;;;;;21.70;46.29;97526.70;1752537;81;25696;-86
2021/05/24 11:32:27;;;;;;;1.55;1.12;;;;;;;21.76;45.71;97532.42;1741009;81;25639;-83
2021/05/24 11:34:55;;;;;;;2.42;1.47;;;;;;;21.83;45.32;97534.89;1747356;81;27581;-87
2021/05/24 11:37:43;;;;;;;2.08;1.27;;;;;;;21.85;45.29;97524.45;1739467;81;25700;-84
2021/05/24 11:40:15;;;;;;;1.92;1.40;;;;;;;21.89;44.74;97524.96;1752773;81;25648;-88
2021/05/24 11:42:42;;;;;;;4.53;1.95;;;;;;;21.90;44.42;97531.28;1747212;81;26111;-84
2021/05/24 11:45:18;;;;;;;4.70;1.77;;;;;;;21.84;44.81;97533.80;1748984;81;25615;-88